Search for airport 
image banner adimage banner adimage banner ad
image banner ad

8PN7 - Cameron County Junior/Senior High School

Located in Emporium, United States

ICAO - 8PN7, IATA -

Data provided by Airmate  

General information

Coordinates: N41°30'49" W78°14'54"
Elevation is 2581 feet MSL.
Magnetic variation is -10° East
View others Airports in Pennsylvania

Operational data

Special qualification required
Current time UTC:
Current local time:
Weather at : KOYM - St Marys Muni ( 24 km )
METAR: KOYM 182337Z AUTO 00000KT 10SM CLR 23/07 A3032 RMK AO2
View NOTAMs / SUP AIP / TFR affecting this airport [VIEW]
Communications frequencies: [VIEW]

Runways:

Airport contact information

Address: Emporium United States

Satellite view of 8PN7